ESSB/BMA METAR and TAF weather

Enter ICAO airport designator
Station Type Date Time Source
ESSB METAR 2019/06/16 07:20 UTC NOAA

ESSB 160720Z AUTO 20004KT 160V250 9999 NCD 23/10 Q1015


Station Type Date Time Source
ESSB Decoded METAR 2019/06/16 07:20 UTC NOAA

Stockholm / Bromma, Sweden (ESSB) 59-21N 017-57E 14M
Jun 16, 2019 - 03:20 AM EDT / 2019.06.16 0720 UTC
Wind: from the SSW (200 degrees) at 5 MPH (4 KT) (direction variable):0
Visibility: greater than 7 mile(s):0
Temperature: 73 F (23 C)
Dew Point: 50 F (10 C)
Relative Humidity: 43%
Pressure (altimeter): 29.97 in. Hg (1015 hPa)
ob: ESSB 160720Z AUTO 20004KT 160V250 9999 NCD 23/10 Q1015
cycle: 7

Station Type Date Time Source
ESSB TAF 2017/03/27 06:35 UTC NOAA

TAF ESSB 270530Z 2706/2724 27008KT CAVOK
BECMG 2710/2713 29015G25KT

Example: see airport list